Terminal Aerodrome Forecast
Issued by NWS Indianapolis, IN

Home | Current Version | Previous Version | Text Only | Print | Product List | Glossary On
Versions: 1 2 3 4 5 6 7 8 9 10 11 12 13 14 15 16 17 18 19 20 21 22 23 24 25 26 27 28 29 30 31 32 33
000
FTUS43 KIND 202000 AAC
TAFIND
TAF AMD
KIND 202025Z 2020/2124 26007KT P6SM SCT040 SCT100 BKN150
     FM210100 25004KT P6SM SCT050 BKN250
     FM210900 20005KT 5SM -SHRA BR VCTS BKN035CB
     FM211600 21008KT P6SM SCT050 BKN250=

USA.gov is the U.S. government's official web portal to all federal, state and local government web resources and services.